Abelea, Mexico

3:36 PM CDT on July 21, 2017 (GMT -0500)
Gen Leobardo C Ruiz International | | Change Station

Elev 7021 ft 22.90 °N, 102.68 °W | Updated 44 minutes ago

Partly Cloudy
Partly Cloudy
73 °F
Feels Like 73 °F
N
6
Wind Variable Wind from WSW

Today
High -- | Low -- °F
--% Chance of Precip.
Yesterday
High -- | Low -- °F
Precip. -- in
Pressure 30.31 in
Visibility 8.0 miles
Clouds Mostly Cloudy 4000 ft
Dew Point 54 °F
Humidity 50%
Rainfall 0.00 in
Snow Depth Not available.
7:17 AM 8:34 PM
Waning Crescent, 4% visible
METAR MMZC 211952Z 24005KT 8SM BKN040 23/12 A3031 RMK 8/800 HZY VC
Pressure 30.31 in
Visibility 8.0 miles
Clouds Mostly Cloudy 4000 ft
Dew Point 54 °F
Humidity 50%
Rainfall 0.00 in
Snow Depth Not available.
7:17 AM 8:34 PM
Waning Crescent, 4% visible
METAR MMZC 211952Z 24005KT 8SM BKN040 23/12 A3031 RMK 8/800 HZY VC

Get Severe Weather Alerts

Thanks for signing up!

Be on the lookout for a verification email in your inbox.

You'll start receiving the daily forecast at 6 AM.

×

10-Day Weather Forecast

No radar image for this location.
×

Almanac

Astronomy

Jul. 21, 2017 Rise Set
Actual Time
Civil Twilight
Nautical Twilight
Astronomical Twilight
Moon
Length of Visible Light
Length of Day
Tomorrow will be .
, % of the Moon is Illuminated

Today's Extremes

Country Highs Country Lows

Community

WunderPhotos

Category 6

Welcome to Category 6. This is the collective home for Weather Underground's featured writeups by Dr. Jeff Masters (right), Bob Henson (left), Chris Burt, and other regular contributors.

Nearby

Air Quality

  Air Quality AQ Index Pollutant
Not available.

Snow Depth

Station Depth Elevation

Earthquake Activity

City Distance Mag. Time & Date
Minimum magnitude displayed is 2.5.

Coastal Water Temperatures

Place Temperature

Stations

Nearby Weather Stations

Station Location Temp. Windchill Dew Point Humidity Wind Precip. Elev Updated Type